Time;durP1;ratioP1;P1;durP2;ratioP2;P2;SDS_P1;SDS_P2;PMS_P1;PMS_P2;Temp;Humidity;BMP_temperature;BMP_pressure;BME280_temperature;BME280_humidity;BME280_pressure;Samples;Min_cycle;Max_cycle;Signal;HPM_P1;HPM_P2
2022/07/13 00:02:09;;;;;;;;;;;11.20;99.90;;;;;;5014524;28;19952;-77
2022/07/13 00:04:35;;;;;;;;;;;11.30;99.90;;;;;;5014572;28;19918;-77
2022/07/13 00:07:02;;;;;;;;;;;11.30;99.90;;;;;;5014337;28;19913;-77
2022/07/13 00:09:29;;;;;;;;;;;11.50;99.90;;;;;;5014509;28;20364;-77
2022/07/13 00:11:55;;;;;;;;;;;11.50;99.90;;;;;;5014287;28;20297;-76
2022/07/13 00:14:22;;;;;;;;;;;11.50;99.90;;;;;;5014402;28;19909;-77
2022/07/13 00:16:49;;;;;;;;;;;11.60;99.90;;;;;;5014224;28;19999;-77
2022/07/13 00:19:15;;;;;;;;;;;11.50;99.90;;;;;;5014044;28;19979;-75
2022/07/13 00:21:42;;;;;;;;;;;11.60;99.90;;;;;;5013039;28;19920;-78
2022/07/13 00:24:09;;;;;;;;;;;11.60;99.90;;;;;;5013637;28;19916;-80
2022/07/13 00:26:35;;;;;;;;;;;11.70;99.90;;;;;;5013482;28;20367;-79
2022/07/13 00:29:02;;;;;;;;;;;11.70;99.90;;;;;;5013901;28;20006;-79
2022/07/13 00:31:29;;;;;;;;;;;11.70;99.90;;;;;;5013742;28;19982;-78
2022/07/13 00:33:56;;;;;;;;;;;11.70;99.90;;;;;;5014217;28;19917;-78
2022/07/13 00:36:22;;;;;;;;;;;11.70;99.90;;;;;;5014186;28;19963;-79
2022/07/13 00:38:49;;;;;;;;;;;11.80;99.90;;;;;;5014101;28;19909;-79
2022/07/13 00:41:16;;;;;;;;;;;11.80;99.90;;;;;;5013966;28;20398;-77
2022/07/13 00:43:42;;;;;;;;;;;11.80;99.90;;;;;;5012630;28;19909;-79
2022/07/13 00:46:10;;;;;;;;;;;11.90;99.90;;;;;;5013702;28;19909;-78
2022/07/13 00:48:37;;;;;;;;;;;11.90;99.90;;;;;;5013592;28;20252;-79
2022/07/13 00:51:05;;;;;;;;;;;12.00;99.90;;;;;;5013621;28;20255;-78
2022/07/13 00:53:35;;;;;;;;;;;12.10;99.90;;;;;;5013846;28;19913;-76
2022/07/13 00:56:03;;;;;;;;;;;12.20;99.90;;;;;;5013655;28;20311;-78
2022/07/13 00:58:30;;;;;;;;;;;12.30;99.90;;;;;;5013523;28;19953;-78
2022/07/13 01:00:56;;;;;;;;;;;12.50;99.90;;;;;;5013381;28;20279;-76
2022/07/13 01:03:23;;;;;;;;;;;12.50;99.90;;;;;;5013821;28;19999;-79
2022/07/13 01:05:51;;;;;;;;;;;12.40;99.90;;;;;;5013421;28;19933;-78
2022/07/13 01:08:19;;;;;;;;;;;12.30;99.90;;;;;;5013575;28;20335;-78
2022/07/13 01:10:47;;;;;;;;;;;12.40;99.90;;;;;;5013616;28;20004;-79
2022/07/13 01:13:14;;;;;;;;;;;12.70;99.90;;;;;;5013161;28;19917;-78
2022/07/13 01:15:40;;;;;;;;;;;12.90;99.90;;;;;;5013542;28;20364;-78
2022/07/13 01:18:07;;;;;;;;;;;13.30;99.90;;;;;;5013519;28;19913;-79
2022/07/13 01:20:34;;;;;;;;;;;13.20;99.90;;;;;;5013468;28;19940;-78
2022/07/13 01:23:19;;;;;;;;;;;13.40;99.90;;;;;;5013822;28;19910;-78
2022/07/13 01:25:46;;;;;;;;;;;13.50;99.90;;;;;;5013661;28;19913;-78
2022/07/13 01:28:15;;;;;;;;;;;13.70;99.90;;;;;;5028608;28;19941;-78
2022/07/13 01:30:43;;;;;;;;;;;13.60;99.90;;;;;;5013235;28;20311;-77
2022/07/13 01:33:10;;;;;;;;;;;13.40;99.90;;;;;;5013219;28;19996;-78
2022/07/13 01:35:37;;;;;;;;;;;13.30;99.90;;;;;;5013282;28;20430;-77
2022/07/13 01:38:04;;;;;;;;;;;13.20;99.90;;;;;;5013581;28;20315;-76
2022/07/13 01:40:30;;;;;;;;;;;13.20;99.90;;;;;;5013304;28;20000;-78
2022/07/13 01:42:57;;;;;;;;;;;13.20;99.90;;;;;;5013134;28;20319;-78
2022/07/13 01:45:24;;;;;;;;;;;13.00;99.90;;;;;;5013486;28;19941;-78
2022/07/13 01:47:54;;;;;;;;;;;13.00;99.90;;;;;;5013167;28;19910;-78
2022/07/13 01:50:23;;;;;;;;;;;13.10;99.90;;;;;;5013434;28;20283;-78
2022/07/13 01:52:50;;;;;;;;;;;13.10;99.90;;;;;;5013190;28;19972;-77
2022/07/13 01:55:17;;;;;;;;;;;13.10;99.90;;;;;;5028545;28;19914;-77
2022/07/13 01:57:44;;;;;;;;;;;13.10;99.90;;;;;;5013165;28;20422;-76
2022/07/13 02:00:16;;;;;;;;;;;13.00;99.90;;;;;;5028310;28;19909;-76
2022/07/13 02:02:43;;;;;;;;;;;13.00;99.90;;;;;;5013220;28;19909;-77
2022/07/13 02:05:10;;;;;;;;;;;13.10;99.90;;;;;;5012845;28;19927;-77
2022/07/13 02:07:38;;;;;;;;;;;13.10;99.90;;;;;;5013186;28;19932;-77
2022/07/13 02:10:05;;;;;;;;;;;13.10;99.90;;;;;;5015805;28;19913;-75
2022/07/13 02:12:32;;;;;;;;;;;13.10;99.90;;;;;;5016704;28;19917;-76
2022/07/13 02:14:58;;;;;;;;;;;13.10;99.90;;;;;;5016538;28;19909;-77
2022/07/13 02:17:25;;;;;;;;;;;13.10;99.90;;;;;;5015439;28;20008;-76
2022/07/13 02:19:52;;;;;;;;;;;13.00;99.90;;;;;;5015844;28;19910;-76
2022/07/13 02:22:19;;;;;;;;;;;13.00;99.90;;;;;;5015946;28;19914;-77
2022/07/13 02:24:46;;;;;;;;;;;13.00;99.90;;;;;;5015933;28;19913;-79
2022/07/13 02:27:12;;;;;;;;;;;13.00;99.90;;;;;;5014170;28;19909;-78
2022/07/13 02:29:39;;;;;;;;;;;13.00;99.90;;;;;;5015525;28;19910;-75
2022/07/13 02:32:06;;;;;;;;;;;13.00;99.90;;;;;;5015477;28;20366;-77
2022/07/13 02:34:33;;;;;;;;;;;13.00;99.90;;;;;;5015509;28;19955;-77
2022/07/13 02:36:59;;;;;;;;;;;13.00;99.90;;;;;;5015208;28;19989;-77
2022/07/13 02:39:26;;;;;;;;;;;13.00;99.90;;;;;;5015998;28;19956;-77
2022/07/13 02:41:53;;;;;;;;;;;13.20;99.90;;;;;;5016042;28;19910;-77
2022/07/13 02:44:19;;;;;;;;;;;13.20;99.90;;;;;;5016201;28;20282;-77
2022/07/13 02:46:46;;;;;;;;;;;13.30;99.90;;;;;;5015952;28;19910;-76
2022/07/13 02:49:13;;;;;;;;;;;13.30;99.90;;;;;;5015744;28;19936;-77
2022/07/13 02:51:40;;;;;;;;;;;13.40;99.90;;;;;;5015796;28;19924;-74
2022/07/13 02:54:06;;;;;;;;;;;13.30;99.90;;;;;;5015894;28;19941;-77
2022/07/13 02:56:33;;;;;;;;;;;13.40;99.90;;;;;;5015988;28;20403;-73
2022/07/13 02:59:00;;;;;;;;;;;13.30;99.90;;;;;;5015826;28;20370;-77
2022/07/13 03:01:26;;;;;;;;;;;13.30;99.90;;;;;;5015653;28;19910;-78
2022/07/13 03:03:53;;;;;;;;;;;13.40;99.90;;;;;;5015531;28;20017;-77
2022/07/13 03:06:20;;;;;;;;;;;13.50;99.90;;;;;;5015726;28;20355;-76
2022/07/13 03:08:46;;;;;;;;;;;13.50;99.90;;;;;;5015714;28;19910;-78
2022/07/13 03:11:13;;;;;;;;;;;13.40;99.90;;;;;;5015349;28;20355;-77
2022/07/13 03:13:40;;;;;;;;;;;13.50;99.90;;;;;;5015763;28;19920;-77
2022/07/13 03:16:07;;;;;;;;;;;13.50;99.90;;;;;;5015379;28;19913;-76
2022/07/13 03:18:33;;;;;;;;;;;13.50;99.90;;;;;;5015826;28;19916;-77
2022/07/13 03:21:00;;;;;;;;;;;13.40;99.90;;;;;;5016452;28;20368;-77
2022/07/13 03:23:27;;;;;;;;;;;13.30;99.90;;;;;;5015557;28;19910;-78
2022/07/13 03:25:53;;;;;;;;;;;13.30;99.90;;;;;;5015629;28;19909;-78
2022/07/13 03:28:20;;;;;;;;;;;13.20;99.90;;;;;;5015380;28;20365;-79
2022/07/13 03:30:47;;;;;;;;;;;13.20;99.90;;;;;;5014067;28;19917;-78
2022/07/13 03:33:13;;;;;;;;;;;13.20;99.90;;;;;;5015128;28;20028;-78
2022/07/13 03:35:40;;;;;;;;;;;13.20;99.90;;;;;;5015165;28;19909;-78
2022/07/13 03:38:07;;;;;;;;;;;13.30;99.90;;;;;;5015135;28;19959;-78
2022/07/13 03:40:33;;;;;;;;;;;13.30;99.90;;;;;;5014948;28;20099;-79
2022/07/13 03:43:00;;;;;;;;;;;13.40;99.90;;;;;;5014744;28;20000;-79
2022/07/13 03:45:27;;;;;;;;;;;13.40;99.90;;;;;;5014909;28;19909;-78
2022/07/13 03:47:53;;;;;;;;;;;13.40;99.90;;;;;;5014922;28;20057;-78
2022/07/13 03:50:20;;;;;;;;;;;13.40;99.90;;;;;;5014782;28;19910;-79
2022/07/13 03:52:47;;;;;;;;;;;13.40;99.90;;;;;;5014728;28;19917;-77
2022/07/13 03:55:14;;;;;;;;;;;13.40;99.90;;;;;;5014469;28;19917;-78
2022/07/13 03:57:41;;;;;;;;;;;13.50;99.90;;;;;;5014658;28;19910;-78
2022/07/13 04:00:08;;;;;;;;;;;13.50;99.90;;;;;;5014500;28;19939;-78
2022/07/13 04:02:35;;;;;;;;;;;13.50;99.90;;;;;;5014595;28;19964;-78
2022/07/13 04:05:02;;;;;;;;;;;13.50;99.90;;;;;;5014287;28;19921;-77
2022/07/13 04:07:29;;;;;;;;;;;13.50;99.90;;;;;;5014527;28;19973;-77
2022/07/13 04:09:55;;;;;;;;;;;13.40;99.90;;;;;;5014494;28;20256;-80
2022/07/13 04:12:22;;;;;;;;;;;13.40;99.90;;;;;;5014376;28;19988;-76
2022/07/13 04:14:49;;;;;;;;;;;13.40;99.90;;;;;;5014345;28;19914;-76
2022/07/13 04:17:16;;;;;;;;;;;13.30;99.90;;;;;;5014352;28;19948;-76
2022/07/13 04:19:43;;;;;;;;;;;13.30;99.90;;;;;;5014298;28;19933;-73
2022/07/13 04:22:09;;;;;;;;;;;13.30;99.90;;;;;;5014211;28;20438;-76
2022/07/13 04:24:36;;;;;;;;;;;13.20;99.90;;;;;;5014235;28;19913;-75
2022/07/13 04:27:03;;;;;;;;;;;13.20;99.90;;;;;;5013956;28;20000;-76
2022/07/13 04:29:29;;;;;;;;;;;13.20;99.90;;;;;;5014176;28;20267;-77
2022/07/13 04:31:56;;;;;;;;;;;13.20;99.90;;;;;;5013278;28;19955;-77
2022/07/13 04:34:23;;;;;;;;;;;13.20;99.90;;;;;;5014094;28;19909;-77
2022/07/13 04:36:50;;;;;;;;;;;13.20;99.90;;;;;;5014024;28;19948;-77
2022/07/13 04:39:16;;;;;;;;;;;13.20;99.90;;;;;;5014043;28;19933;-75
2022/07/13 04:41:43;;;;;;;;;;;13.20;99.90;;;;;;5013870;28;19962;-76
2022/07/13 04:44:10;;;;;;;;;;;13.30;99.90;;;;;;5014033;28;19925;-74
2022/07/13 04:46:36;;;;;;;;;;;13.30;99.90;;;;;;5013802;28;19909;-77
2022/07/13 04:49:03;;;;;;;;;;;13.30;99.90;;;;;;5013528;28;19909;-75
2022/07/13 04:51:31;;;;;;;;;;;13.30;99.90;;;;;;5013667;28;19985;-77
2022/07/13 04:53:57;;;;;;;;;;;13.40;99.90;;;;;;5013953;28;19909;-73
2022/07/13 04:56:24;;;;;;;;;;;13.40;99.90;;;;;;5013738;28;19920;-77
2022/07/13 04:58:51;;;;;;;;;;;13.40;99.90;;;;;;5013692;28;19910;-74
2022/07/13 05:01:17;;;;;;;;;;;13.40;99.90;;;;;;5013693;28;19979;-78
2022/07/13 05:03:44;;;;;;;;;;;13.30;99.90;;;;;;5028762;28;19935;-76
2022/07/13 05:06:13;;;;;;;;;;;13.40;99.90;;;;;;5013813;28;19913;-78
2022/07/13 05:08:40;;;;;;;;;;;13.30;99.90;;;;;;5013686;28;19932;-78
2022/07/13 05:11:08;;;;;;;;;;;13.30;99.90;;;;;;5013297;28;19913;-77
2022/07/13 05:13:35;;;;;;;;;;;13.20;99.90;;;;;;5013461;28;19976;-75
2022/07/13 05:16:02;;;;;;;;;;;13.30;99.90;;;;;;5013536;28;19909;-76
2022/07/13 05:18:28;;;;;;;;;;;13.20;99.90;;;;;;5013474;28;19963;-75
2022/07/13 05:20:55;;;;;;;;;;;13.20;99.90;;;;;;5013415;28;19916;-77
2022/07/13 05:23:22;;;;;;;;;;;13.20;99.90;;;;;;5013486;28;20008;-76
2022/07/13 05:25:48;;;;;;;;;;;13.20;99.90;;;;;;5013447;28;19909;-76
2022/07/13 05:28:15;;;;;;;;;;;13.20;99.90;;;;;;5013563;28;20256;-77
2022/07/13 05:30:42;;;;;;;;;;;13.20;99.90;;;;;;5013222;28;19967;-74
2022/07/13 05:33:08;;;;;;;;;;;13.20;99.90;;;;;;5013160;28;19929;-74
2022/07/13 05:35:35;;;;;;;;;;;13.20;99.90;;;;;;5013408;28;20016;-74
2022/07/13 05:38:02;;;;;;;;;;;13.20;99.90;;;;;;5013429;28;19910;-77
2022/07/13 05:40:28;;;;;;;;;;;13.20;99.90;;;;;;5013256;28;19913;-77
2022/07/13 05:42:55;;;;;;;;;;;13.20;99.90;;;;;;5013925;28;19910;-77
2022/07/13 05:45:22;;;;;;;;;;;13.20;99.90;;;;;;5017052;28;19913;-75
2022/07/13 05:47:48;;;;;;;;;;;13.10;99.90;;;;;;5017023;28;19909;-76
2022/07/13 05:50:15;;;;;;;;;;;13.10;99.90;;;;;;5017164;28;19914;-75
2022/07/13 05:52:43;;;;;;;;;;;13.10;99.90;;;;;;5017106;28;19918;-74
2022/07/13 05:55:10;;;;;;;;;;;13.10;99.90;;;;;;5016838;28;19916;-73
2022/07/13 05:57:37;;;;;;;;;;;13.10;99.90;;;;;;5017021;28;19968;-76
2022/07/13 06:00:06;;;;;;;;;;;13.10;99.90;;;;;;5016742;28;20386;-76
2022/07/13 06:02:32;;;;;;;;;;;13.10;99.90;;;;;;5017056;28;20004;-76
2022/07/13 06:04:59;;;;;;;;;;;13.00;99.90;;;;;;5016440;28;20352;-75
2022/07/13 06:07:26;;;;;;;;;;;13.00;99.90;;;;;;5016788;28;19909;-75
2022/07/13 06:09:53;;;;;;;;;;;12.90;99.90;;;;;;5016772;28;19910;-75
2022/07/13 06:12:23;;;;;;;;;;;12.70;99.90;;;;;;5016530;28;19918;-75
2022/07/13 06:14:49;;;;;;;;;;;12.50;99.90;;;;;;5016577;28;19917;-74
2022/07/13 06:17:16;;;;;;;;;;;12.40;99.90;;;;;;5016639;28;20344;-77
2022/07/13 06:19:43;;;;;;;;;;;12.20;99.90;;;;;;5016677;28;20376;-75
2022/07/13 06:22:09;;;;;;;;;;;12.10;99.90;;;;;;5016510;28;19933;-72
2022/07/13 06:24:36;;;;;;;;;;;12.00;99.90;;;;;;5016397;28;19909;-73
2022/07/13 06:27:03;;;;;;;;;;;11.90;99.90;;;;;;5016201;28;19910;-74
2022/07/13 06:29:29;;;;;;;;;;;11.70;99.90;;;;;;5016177;28;19956;-72
2022/07/13 06:31:56;;;;;;;;;;;11.40;99.90;;;;;;5016348;28;19917;-74
2022/07/13 06:34:23;;;;;;;;;;;11.10;99.90;;;;;;5016201;28;20000;-73
2022/07/13 06:36:49;;;;;;;;;;;10.80;99.90;;;;;;5016114;28;19914;-74
2022/07/13 06:39:16;;;;;;;;;;;10.70;99.90;;;;;;5016167;28;19909;-74
2022/07/13 06:41:44;;;;;;;;;;;10.70;99.90;;;;;;5016193;28;19920;-74
2022/07/13 06:44:11;;;;;;;;;;;10.50;99.90;;;;;;5016026;28;19909;-75
2022/07/13 06:46:38;;;;;;;;;;;10.50;99.90;;;;;;5016019;28;19909;-76
2022/07/13 06:49:05;;;;;;;;;;;10.60;99.90;;;;;;5015767;28;19945;-76
2022/07/13 06:51:32;;;;;;;;;;;10.60;99.90;;;;;;5015921;28;19913;-75
2022/07/13 06:53:59;;;;;;;;;;;10.60;99.90;;;;;;5015794;28;20322;-73
2022/07/13 06:56:26;;;;;;;;;;;10.70;99.90;;;;;;5015480;28;20295;-76
2022/07/13 06:58:52;;;;;;;;;;;10.80;99.90;;;;;;5015609;28;19964;-75
2022/07/13 07:01:19;;;;;;;;;;;11.10;99.90;;;;;;5015799;28;20024;-75
2022/07/13 07:03:46;;;;;;;;;;;11.50;99.90;;;;;;5015534;28;19993;-76
2022/07/13 07:06:13;;;;;;;;;;;11.70;99.90;;;;;;5015708;28;19918;-76
2022/07/13 07:08:40;;;;;;;;;;;11.80;99.90;;;;;;5015627;28;19910;-72
2022/07/13 07:11:07;;;;;;;;;;;11.90;99.90;;;;;;5015270;28;19910;-76
2022/07/13 07:13:33;;;;;;;;;;;12.00;99.90;;;;;;5015358;28;20251;-77
2022/07/13 07:16:01;;;;;;;;;;;12.10;99.90;;;;;;5015292;28;19909;-76
2022/07/13 07:18:27;;;;;;;;;;;12.10;99.90;;;;;;5015395;28;19910;-77
2022/07/13 07:21:00;;;;;;;;;;;12.10;99.90;;;;;;5014406;28;20240;-76
2022/07/13 07:23:27;;;;;;;;;;;12.10;99.90;;;;;;5015368;28;20359;-76
2022/07/13 07:25:53;;;;;;;;;;;12.20;99.90;;;;;;5015322;28;19964;-73
2022/07/13 07:28:20;;;;;;;;;;;12.10;99.90;;;;;;5015389;28;19910;-78
2022/07/13 07:30:47;;;;;;;;;;;12.10;99.90;;;;;;5015179;28;19937;-77
2022/07/13 07:33:13;;;;;;;;;;;12.10;99.90;;;;;;5014891;28;20008;-77
2022/07/13 07:35:40;;;;;;;;;;;12.20;99.90;;;;;;5015181;28;19909;-76
2022/07/13 07:38:07;;;;;;;;;;;12.20;99.90;;;;;;5015071;28;19920;-77
2022/07/13 07:40:34;;;;;;;;;;;12.20;99.90;;;;;;5015096;28;20059;-77
2022/07/13 07:43:01;;;;;;;;;;;12.10;99.90;;;;;;5014870;28;19963;-77
2022/07/13 07:45:28;;;;;;;;;;;12.20;99.90;;;;;;5014914;28;19909;-78
2022/07/13 07:47:54;;;;;;;;;;;12.20;99.90;;;;;;5014838;28;19914;-76
2022/07/13 07:50:21;;;;;;;;;;;12.20;99.90;;;;;;5014605;28;20004;-78
2022/07/13 07:52:48;;;;;;;;;;;12.20;99.90;;;;;;5014735;28;19918;-78
2022/07/13 07:55:14;;;;;;;;;;;12.20;99.90;;;;;;5014550;28;20359;-78
2022/07/13 07:57:48;;;;;;;;;;;12.20;99.90;;;;;;5014798;28;19910;-78
2022/07/13 08:00:15;;;;;;;;;;;12.20;99.90;;;;;;5014521;28;19913;-78
2022/07/13 08:02:42;;;;;;;;;;;12.20;99.90;;;;;;5014677;28;20390;-78
2022/07/13 08:05:09;;;;;;;;;;;12.20;99.90;;;;;;5014066;28;19949;-77
2022/07/13 08:07:42;;;;;;;;;;;12.10;99.90;;;;;;5014492;28;19918;-78
2022/07/13 08:10:09;;;;;;;;;;;12.20;99.90;;;;;;5014477;28;19932;-79
2022/07/13 08:12:36;;;;;;;;;;;12.20;99.90;;;;;;5014195;28;19917;-79
2022/07/13 08:15:07;;;;;;;;;;;12.20;99.90;;;;;;5014079;28;19909;-77
2022/07/13 08:17:39;;;;;;;;;;;12.10;99.90;;;;;;5014363;28;20524;-77
2022/07/13 08:20:16;;;;;;;;;;;12.10;99.90;;;;;;5014274;28;20352;-77
2022/07/13 08:22:43;;;;;;;;;;;12.00;99.90;;;;;;5012240;28;20003;-75
2022/07/13 08:25:09;;;;;;;;;;;12.00;99.90;;;;;;5014138;28;19909;-73
2022/07/13 08:27:36;;;;;;;;;;;11.90;99.90;;;;;;5014055;28;20351;-76
2022/07/13 08:30:03;;;;;;;;;;;11.80;99.90;;;;;;5013696;28;19910;-76
2022/07/13 08:32:30;;;;;;;;;;;11.50;99.90;;;;;;5013499;28;20359;-76
2022/07/13 08:40:25;;;;;;;;;;;10.70;99.90;;;;;;5014156;28;20319;-75
2022/07/13 08:42:52;;;;;;;;;;;10.70;99.90;;;;;;5013745;28;19914;-75
2022/07/13 08:45:19;;;;;;;;;;;10.80;99.90;;;;;;5013888;28;19909;-73
2022/07/13 08:47:47;;;;;;;;;;;10.90;99.90;;;;;;5013320;28;20364;-74
2022/07/13 08:50:13;;;;;;;;;;;11.00;99.90;;;;;;5013749;28;19909;-74
2022/07/13 08:52:41;;;;;;;;;;;11.20;99.90;;;;;;5013557;28;19917;-73
2022/07/13 08:55:11;;;;;;;;;;;11.20;99.90;;;;;;5013393;28;19997;-74
2022/07/13 08:57:39;;;;;;;;;;;11.10;99.90;;;;;;5013663;28;19920;-75
2022/07/13 09:00:11;;;;;;;;;;;10.90;99.90;;;;;;5013526;28;20379;-76
2022/07/13 09:02:38;;;;;;;;;;;10.70;99.90;;;;;;5013023;28;19910;-74
2022/07/13 09:05:06;;;;;;;;;;;10.50;99.90;;;;;;5013233;28;19921;-75
2022/07/13 09:07:36;;;;;;;;;;;10.40;99.90;;;;;;5013494;28;19910;-76
2022/07/13 09:10:04;;;;;;;;;;;10.30;99.90;;;;;;5013547;28;19910;-77
2022/07/13 09:12:31;;;;;;;;;;;10.30;99.90;;;;;;5013419;28;19921;-74
2022/07/13 09:14:59;;;;;;;;;;;10.40;99.90;;;;;;5013115;28;19910;-76
2022/07/13 09:17:30;;;;;;;;;;;10.40;99.90;;;;;;5013826;28;19909;-77
2022/07/13 09:20:02;;;;;;;;;;;10.40;99.90;;;;;;5020068;28;19916;-76
2022/07/13 09:22:29;;;;;;;;;;;10.40;99.90;;;;;;5020033;28;20360;-75
2022/07/13 09:24:56;;;;;;;;;;;10.40;99.90;;;;;;5019726;28;19909;-75
2022/07/13 09:27:23;;;;;;;;;;;10.50;99.90;;;;;;5020270;28;20351;-75
2022/07/13 09:29:49;;;;;;;;;;;10.40;99.90;;;;;;5019762;28;19972;-75
2022/07/13 09:32:16;;;;;;;;;;;10.30;99.90;;;;;;5019285;28;20286;-74
2022/07/13 09:34:57;;;;;;;;;;;10.30;99.90;;;;;;5020017;28;20011;-75
2022/07/13 09:37:27;;;;;;;;;;;10.30;99.90;;;;;;5019918;28;19914;-75
2022/07/13 09:40:01;;;;;;;;;;;10.30;99.90;;;;;;5019983;28;20016;-76
2022/07/13 09:42:31;;;;;;;;;;;10.30;99.90;;;;;;5019751;28;19955;-77
2022/07/13 09:47:48;;;;;;;;;;;10.10;99.90;;;;;;5019853;28;19919;-78
2022/07/13 09:50:19;;;;;;;;;;;10.10;99.90;;;;;;5019899;28;19909;-77
2022/07/13 09:52:46;;;;;;;;;;;10.00;99.90;;;;;;5019665;28;19927;-76
2022/07/13 09:55:16;;;;;;;;;;;10.00;99.90;;;;;;5019470;28;19917;-76
2022/07/13 09:57:45;;;;;;;;;;;10.00;99.90;;;;;;5019596;28;19916;-76
2022/07/13 10:00:14;;;;;;;;;;;10.00;99.90;;;;;;5019502;28;19910;-77
2022/07/13 10:02:41;;;;;;;;;;;10.00;99.90;;;;;;5019613;28;19909;-77
2022/07/13 10:05:08;;;;;;;;;;;10.00;99.90;;;;;;5019059;28;19922;-75
2022/07/13 10:07:35;;;;;;;;;;;10.00;99.90;;;;;;5017986;28;19910;-77
2022/07/13 10:10:05;;;;;;;;;;;10.00;99.90;;;;;;5019452;28;20398;-77
2022/07/13 10:12:34;;;;;;;;;;;10.00;99.90;;;;;;5019530;28;19917;-78
2022/07/13 10:15:01;;;;;;;;;;;10.10;99.90;;;;;;5019191;28;19915;-79
2022/07/13 10:17:27;;;;;;;;;;;10.00;99.90;;;;;;5019435;28;19916;-80
2022/07/13 10:19:57;;;;;;;;;;;10.00;99.90;;;;;;5019339;28;19913;-80
2022/07/13 10:22:28;;;;;;;;;;;10.00;99.90;;;;;;5018824;28;19940;-78
2022/07/13 10:24:56;;;;;;;;;;;10.00;99.90;;;;;;5019231;28;19913;-80
2022/07/13 10:27:29;;;;;;;;;;;9.90;99.90;;;;;;5019411;28;19931;-81
2022/07/13 10:30:01;;;;;;;;;;;9.90;99.90;;;;;;5016272;28;19949;-82
2022/07/13 10:32:29;;;;;;;;;;;10.00;99.90;;;;;;5016182;28;19988;-82
2022/07/13 10:35:09;;;;;;;;;;;9.90;99.90;;;;;;5015868;28;20466;-80
2022/07/13 10:37:53;;;;;;;;;;;9.80;99.90;;;;;;5015670;28;20322;-81
2022/07/13 10:40:20;;;;;;;;;;;9.90;99.90;;;;;;5016220;28;19917;-81
2022/07/13 10:42:53;;;;;;;;;;;9.80;99.90;;;;;;5016008;28;19909;-79
2022/07/13 10:45:38;;;;;;;;;;;9.80;99.90;;;;;;5015861;28;19909;-80
2022/07/13 10:48:10;;;;;;;;;;;9.90;99.90;;;;;;5016014;28;19909;-79
2022/07/13 10:50:47;;;;;;;;;;;9.90;99.90;;;;;;5015277;28;20276;-81
2022/07/13 10:53:18;;;;;;;;;;;9.90;99.90;;;;;;5015583;28;20446;-82
2022/07/13 10:55:51;;;;;;;;;;;9.90;99.90;;;;;;5015852;28;20279;-85
2022/07/13 10:58:33;;;;;;;;;;;9.90;99.90;;;;;;5015830;28;19917;-86
2022/07/13 11:01:00;;;;;;;;;;;9.90;99.90;;;;;;4997952;28;20415;-84
2022/07/13 11:03:28;;;;;;;;;;;9.90;99.90;;;;;;5015878;28;20053;-82
2022/07/13 11:06:17;;;;;;;;;;;9.90;99.90;;;;;;5015508;28;19921;-83
2022/07/13 11:08:44;;;;;;;;;;;9.90;99.90;;;;;;5016238;28;19917;-79
2022/07/13 11:11:12;;;;;;;;;;;9.90;99.90;;;;;;5015536;28;19937;-85
2022/07/13 11:13:39;;;;;;;;;;;9.80;99.90;;;;;;5015483;28;19936;-83
2022/07/13 11:16:07;;;;;;;;;;;9.90;99.90;;;;;;5015607;28;19960;-86
2022/07/13 11:18:35;;;;;;;;;;;9.80;99.90;;;;;;5015619;28;19914;-86
2022/07/13 11:21:14;;;;;;;;;;;9.80;99.90;;;;;;5014745;28;20363;-85
2022/07/13 11:26:53;;;;;;;;;;;9.80;99.90;;;;;;5015487;28;19916;-82
2022/07/13 11:29:38;;;;;;;;;;;9.90;99.90;;;;;;5015228;28;20004;-85
2022/07/13 11:32:05;;;;;;;;;;;9.80;99.90;;;;;;5015240;28;19974;-82
2022/07/13 11:34:32;;;;;;;;;;;9.80;99.90;;;;;;5015686;28;19910;-86
2022/07/13 11:37:01;;;;;;;;;;;9.80;99.90;;;;;;5015421;28;19952;-87
2022/07/13 11:39:28;;;;;;;;;;;9.70;99.90;;;;;;5015079;28;19909;-84
2022/07/13 11:41:56;;;;;;;;;;;9.70;99.90;;;;;;5014641;28;19917;-81
2022/07/13 11:44:24;;;;;;;;;;;9.70;99.90;;;;;;5015115;28;20008;-83
2022/07/13 11:46:54;;;;;;;;;;;9.80;99.90;;;;;;5015688;28;19910;-80
2022/07/13 11:49:21;;;;;;;;;;;9.80;99.90;;;;;;5015812;28;19917;-86
2022/07/13 11:51:48;;;;;;;;;;;9.80;99.90;;;;;;5014996;28;19960;-88
2022/07/13 11:54:19;;;;;;;;;;;9.80;99.90;;;;;;5015736;28;20283;-83
2022/07/13 11:56:46;;;;;;;;;;;9.80;99.90;;;;;;4997506;28;19909;-86
2022/07/13 11:59:13;;;;;;;;;;;9.80;99.90;;;;;;5014317;28;20278;-74
2022/07/13 12:01:48;;;;;;;;;;;9.80;99.90;;;;;;5014985;28;19909;-81
2022/07/13 12:04:21;;;;;;;;;;;9.80;99.90;;;;;;5014378;28;20413;-75
2022/07/13 12:06:47;;;;;;;;;;;9.70;99.90;;;;;;5014807;28;20368;-76
2022/07/13 12:09:18;;;;;;;;;;;9.60;99.90;;;;;;5014927;28;19921;-75
2022/07/13 12:11:45;;;;;;;;;;;9.60;99.90;;;;;;5014689;28;20021;-82
2022/07/13 12:14:12;;;;;;;;;;;9.60;99.90;;;;;;5014581;28;19910;-77
2022/07/13 12:16:39;;;;;;;;;;;9.70;99.90;;;;;;5014582;28;19910;-80
2022/07/13 12:19:08;;;;;;;;;;;9.60;99.90;;;;;;5014153;28;19917;-75
2022/07/13 12:21:35;;;;;;;;;;;9.70;99.90;;;;;;5014802;28;19914;-76
2022/07/13 12:24:02;;;;;;;;;;;9.70;99.90;;;;;;5014589;28;19956;-80
2022/07/13 12:26:30;;;;;;;;;;;9.80;99.90;;;;;;5014503;28;19971;-72
2022/07/13 12:28:56;;;;;;;;;;;9.70;99.90;;;;;;5013904;28;19953;-74
2022/07/13 12:31:23;;;;;;;;;;;9.70;99.90;;;;;;5014359;28;20296;-73
2022/07/13 12:33:50;;;;;;;;;;;9.70;99.90;;;;;;5014196;28;20337;-75
2022/07/13 12:36:22;;;;;;;;;;;9.70;99.90;;;;;;5013798;28;19943;-76
2022/07/13 12:38:54;;;;;;;;;;;9.70;99.90;;;;;;5014203;28;19909;-78
2022/07/13 12:41:26;;;;;;;;;;;9.70;99.90;;;;;;5014209;28;19909;-75
2022/07/13 12:43:57;;;;;;;;;;;9.80;99.90;;;;;;5013907;28;20360;-76
2022/07/13 12:46:24;;;;;;;;;;;9.60;99.90;;;;;;5014096;28;20398;-76
2022/07/13 12:49:04;;;;;;;;;;;9.60;99.90;;;;;;5013684;28;19916;-75
2022/07/13 12:51:51;;;;;;;;;;;9.70;99.90;;;;;;5014128;28;19953;-81
2022/07/13 12:54:18;;;;;;;;;;;9.70;99.90;;;;;;5013450;28;19988;-75
2022/07/13 12:56:50;;;;;;;;;;;9.70;99.90;;;;;;5013918;28;19913;-72
2022/07/13 12:59:18;;;;;;;;;;;9.70;99.90;;;;;;5014081;28;19957;-78
2022/07/13 13:01:45;;;;;;;;;;;9.70;99.90;;;;;;5013975;28;19968;-75
2022/07/13 13:04:12;;;;;;;;;;;9.80;99.90;;;;;;5013233;28;19918;-75
2022/07/13 13:06:43;;;;;;;;;;;9.70;99.90;;;;;;5013833;28;20367;-77
2022/07/13 13:09:11;;;;;;;;;;;9.80;99.90;;;;;;5013586;28;19981;-73
2022/07/13 13:11:39;;;;;;;;;;;9.80;99.90;;;;;;5013781;28;19914;-74
2022/07/13 13:14:05;;;;;;;;;;;9.90;99.90;;;;;;5013745;28;19956;-76
2022/07/13 13:16:32;;;;;;;;;;;9.90;99.90;;;;;;5013990;28;19916;-75
2022/07/13 13:19:00;;;;;;;;;;;9.90;99.90;;;;;;5014937;28;19924;-85
2022/07/13 13:21:27;;;;;;;;;;;9.90;99.90;;;;;;5014551;28;19910;-85
2022/07/13 13:23:55;;;;;;;;;;;10.00;99.90;;;;;;5014993;28;19916;-86
2022/07/13 13:26:21;;;;;;;;;;;10.10;99.90;;;;;;5014340;28;19932;-86
2022/07/13 13:31:33;;;;;;;;;;;10.20;99.90;;;;;;5014708;28;19960;-86
2022/07/13 13:33:59;;;;;;;;;;;10.20;99.90;;;;;;5013745;28;20000;-86
2022/07/13 13:36:26;;;;;;;;;;;10.20;99.90;;;;;;5014141;28;19955;-86
2022/07/13 13:38:53;;;;;;;;;;;10.10;99.90;;;;;;5013816;28;19910;-85
2022/07/13 13:41:19;;;;;;;;;;;10.10;99.90;;;;;;5014119;28;20394;-87
2022/07/13 13:43:46;;;;;;;;;;;10.10;99.90;;;;;;5014332;28;20283;-87
2022/07/13 13:46:14;;;;;;;;;;;10.10;99.90;;;;;;5014661;28;20334;-86
2022/07/13 13:48:40;;;;;;;;;;;10.10;99.90;;;;;;5014181;28;19909;-86
2022/07/13 13:51:07;;;;;;;;;;;10.00;99.90;;;;;;5013853;28;20019;-82
2022/07/13 13:53:34;;;;;;;;;;;10.00;99.90;;;;;;5013897;28;20000;-83
2022/07/13 13:56:00;;;;;;;;;;;9.90;99.90;;;;;;5013998;28;19916;-88
2022/07/13 13:58:27;;;;;;;;;;;9.80;99.90;;;;;;5013795;28;19909;-85
2022/07/13 14:00:54;;;;;;;;;;;9.70;99.90;;;;;;5013461;28;19940;-84
2022/07/13 14:03:21;;;;;;;;;;;9.60;99.90;;;;;;5013344;28;20004;-81
2022/07/13 14:05:47;;;;;;;;;;;9.50;99.90;;;;;;5016948;28;20005;-76
2022/07/13 14:08:14;;;;;;;;;;;9.30;99.90;;;;;;5017012;28;20021;-83
2022/07/13 14:10:42;;;;;;;;;;;9.20;99.90;;;;;;5016901;28;20422;-80
2022/07/13 14:13:08;;;;;;;;;;;9.10;99.90;;;;;;5016346;28;20004;-82
2022/07/13 14:15:35;;;;;;;;;;;9.00;99.90;;;;;;5016920;28;20283;-81
2022/07/13 14:18:02;;;;;;;;;;;9.00;99.90;;;;;;5016777;28;19917;-82
2022/07/13 14:20:28;;;;;;;;;;;8.90;99.90;;;;;;5016751;28;19917;-83
2022/07/13 14:22:55;;;;;;;;;;;8.90;99.90;;;;;;5016422;28;19910;-80
2022/07/13 14:25:23;;;;;;;;;;;8.90;99.90;;;;;;5016620;28;20302;-79
2022/07/13 14:27:50;;;;;;;;;;;8.90;99.90;;;;;;5016590;28;20044;-79
2022/07/13 14:30:17;;;;;;;;;;;8.90;99.90;;;;;;5016544;28;19910;-76
2022/07/13 14:32:44;;;;;;;;;;;8.90;99.90;;;;;;5016305;28;19929;-74
2022/07/13 14:35:11;;;;;;;;;;;8.90;99.90;;;;;;5016233;28;19909;-77
2022/07/13 14:37:38;;;;;;;;;;;9.00;99.90;;;;;;5016539;28;20000;-80
2022/07/13 14:40:06;;;;;;;;;;;8.90;99.90;;;;;;5016304;28;20350;-79